Aeroporto :
LOGIN :

Iscrizione | Disclaimer

   EN    FR    IT 

 










Sommario :    VFR   VFR Marginale   IFR   IFR Intensivo   IFR Molto Intensivo
Visibilità : 
Base nubi : 
>= 8 km
>= 3000ft
5 / 8 km
1000 / 3000 ft
1500m / 5 km
500 / 1000 ft
800 / 1500m
200 / 500 ft
< 800m
< 200 ft
Simboli :   Temporali  Nebbia  Neve Forte  Precipitazioni Forti  Vento > 20 kt
SIGMETs :   Varie  Temporali  Ghiacco  Turbolenza  Onda orograficha  Ceneri Vulcaniche






- Altitudine del aeroporto : 784 ft
- Codice IATA : TZL


LQTZ - Tuzla

ULTIMO METAR :
  • 240900Z 29008KT 8000 SCT010 BKN030 10/08 Q1005

METARs OBSOLETI :
  • 240830Z 28007KT 250V320 8000 -RA SCT010 BKN030 10/08 Q1005
  • 240800Z 28006KT 230V310 6000 BKN010 10/08 Q1005
  • 240730Z 30005KT 240V340 8000 SCT010 BKN030 10/08 Q1005
  • 240700Z 29005KT 270V330 8000 SCT010 BKN030 09/08 Q1005
  • 240630Z 24003KT 8000 SCT010 BKN025 09/08 Q1005
  • 240600Z VRB01KT 9999 BKN025 09/08 Q1005
  • 240530Z VRB02KT 9999 BKN025 09/08 Q1005
  • 240500Z VRB02KT 9999 -RA OVC025 08/08 Q1005
  • 240430Z VRB02KT 9999 OVC030 08/08 Q1005

TAF COR TAF LQTZ
Valido dal 24 a 06 ore il 25 a 06 ore UTC


240500Z 2406/2506 VRB02KT 9999 SCT017 BKN030 TX12/2413Z TN03/2505Z
TEMPO 2410/2417 30012KT 4000 SHRA FEW027TCU BKN033
TEMPO 2421/2424 2000 BR BKN005
PROB40 2500/2506 0100 FG VV001



MetMap, La meteo Aeronautica in un colpo d'occhio ! - Copyright ORBIFLY Dicembre 2007 - Disclaimer

ORBIFLY MET'MAP TEAM :

Programmazione e sviluppo : Alexandra Zaïnal
Concezione : Baudouin d'Aumeries
Supporto tecnico e logistico : Manuel Goepfert
Aiuto : Marc-Olivier Méhu
Aiuto per la traduzione : Arnaldo La Scala




FONTI E CREDITI :

   NOAA